createdAt,value
2023-01-13T00:01:14.185Z,28.45
2023-01-13T00:03:42.595Z,26.95
2023-01-13T00:06:13.815Z,26.45
2023-01-13T00:08:42.072Z,28.38
2023-01-13T00:11:11.261Z,29.30
2023-01-13T00:13:40.067Z,27.67
2023-01-13T00:16:13.145Z,29.05
2023-01-13T00:18:41.452Z,27.08
2023-01-13T00:21:13.796Z,26.70
2023-01-13T00:23:42.521Z,27.63
2023-01-13T00:26:14.992Z,26.52
2023-01-13T00:28:43.347Z,26.10
2023-01-13T00:31:14.565Z,26.98
2023-01-13T00:33:43.255Z,26.05
2023-01-13T00:36:14.819Z,26.67
2023-01-13T00:38:44.084Z,27.05
2023-01-13T00:41:14.738Z,25.92
2023-01-13T00:43:43.311Z,26.25
2023-01-13T00:46:16.049Z,28.27
2023-01-13T00:48:44.567Z,27.50
2023-01-13T00:51:15.003Z,27.75
2023-01-13T00:53:44.825Z,27.48
2023-01-13T00:56:16.642Z,28.17
2023-01-13T00:58:46.088Z,28.35
2023-01-13T01:01:18.324Z,27.48
2023-01-13T01:03:51.042Z,28.40
2023-01-13T01:06:21.235Z,25.20
2023-01-13T01:08:49.458Z,27.30
2023-01-13T01:11:20.505Z,26.95
2023-01-13T01:13:49.146Z,27.20
2023-01-13T01:16:20.422Z,27.77
2023-01-13T01:18:50.119Z,25.35
2023-01-13T01:21:19.471Z,25.95
2023-01-13T01:23:47.903Z,25.85
2023-01-13T01:26:18.239Z,25.10
2023-01-13T01:28:47.087Z,24.65
2023-01-13T01:31:17.630Z,26.65
2023-01-13T01:33:47.775Z,25.67
2023-01-13T01:36:17.528Z,23.77
2023-01-13T01:38:46.395Z,24.42
2023-01-13T01:41:17.073Z,25.13
2023-01-13T01:44:07.148Z,25.92
2023-01-13T01:46:38.149Z,24.77
2023-01-13T01:49:17.250Z,24.05
2023-01-13T01:51:50.263Z,25.15
2023-01-13T01:54:23.375Z,24.33
2023-01-13T01:56:52.169Z,24.30
2023-01-13T01:59:25.308Z,25.45
2023-01-13T02:01:59.541Z,23.80
2023-01-13T02:04:38.489Z,24.02
2023-01-13T02:07:07.283Z,22.23
2023-01-13T02:09:37.616Z,22.83
2023-01-13T02:12:23.508Z,23.33
2023-01-13T02:14:51.809Z,22.25
2023-01-13T02:17:30.080Z,21.35
2023-01-13T02:20:36.671Z,22.55
2023-01-13T02:23:56.278Z,21.42
2023-01-13T02:26:52.349Z,20.63
2023-01-13T02:30:07.540Z,19.15
2023-01-13T02:32:41.541Z,20.35
2023-01-13T02:35:16.019Z,21.05
2023-01-13T02:37:45.504Z,19.80
2023-01-13T02:40:19.347Z,19.63
2023-01-13T02:43:09.708Z,20.05
2023-01-13T02:45:43.423Z,19.20
2023-01-13T02:48:14.103Z,19.23
2023-01-13T02:50:48.667Z,20.00
2023-01-13T02:53:22.917Z,20.58
2023-01-13T02:55:54.263Z,20.52
2023-01-13T02:58:27.250Z,19.65
2023-01-13T03:00:56.990Z,21.23
2023-01-13T03:03:25.616Z,19.52
2023-01-13T03:05:57.513Z,20.40
2023-01-13T03:08:42.952Z,20.45
2023-01-13T03:11:14.084Z,19.95
2023-01-13T03:14:09.254Z,19.58
2023-01-13T03:16:53.772Z,19.17
2023-01-13T03:19:37.352Z,20.98
2023-01-13T03:22:19.001Z,19.83
2023-01-13T03:24:54.279Z,20.27
2023-01-13T03:27:27.135Z,21.55
2023-01-13T03:29:59.669Z,20.92
2023-01-13T03:32:33.705Z,21.70
2023-01-13T03:35:08.739Z,21.00
2023-01-13T03:37:41.156Z,21.50
2023-01-13T03:40:15.348Z,20.90
2023-01-13T03:43:06.198Z,19.70
2023-01-13T03:45:36.136Z,20.33
2023-01-13T03:48:10.034Z,22.02
2023-01-13T03:50:42.141Z,20.83
2023-01-13T03:53:15.163Z,20.58
2023-01-13T03:55:49.131Z,21.10
2023-01-13T03:58:21.724Z,21.50
2023-01-13T04:00:54.855Z,20.77
2023-01-13T04:03:30.645Z,20.17
2023-01-13T04:06:11.243Z,20.42
2023-01-13T04:08:48.373Z,20.55
2023-01-13T04:11:20.995Z,20.67
2023-01-13T04:13:50.776Z,20.35
2023-01-13T04:16:19.081Z,20.63
2023-01-13T04:18:51.263Z,21.35
2023-01-13T04:21:19.418Z,20.90
2023-01-13T04:23:51.420Z,20.10
2023-01-13T04:26:20.401Z,20.70
2023-01-13T04:28:49.148Z,20.70
2023-01-13T04:31:17.317Z,20.58
2023-01-13T04:33:45.532Z,20.42
2023-01-13T04:36:15.073Z,21.63
2023-01-13T04:38:43.228Z,20.75
2023-01-13T04:41:11.480Z,21.13
2023-01-13T04:43:39.747Z,20.98
2023-01-13T04:46:07.982Z,20.77
2023-01-13T04:48:36.213Z,22.00
2023-01-13T04:51:04.348Z,22.08
2023-01-13T04:53:33.867Z,22.67
2023-01-13T04:56:01.983Z,21.50
2023-01-13T04:58:30.052Z,22.83
2023-01-13T05:00:58.261Z,23.40
2023-01-13T05:03:26.885Z,21.73
2023-01-13T05:05:55.038Z,24.17
2023-01-13T05:08:23.209Z,24.25
2023-01-13T05:10:52.689Z,22.77
2023-01-13T05:13:38.170Z,23.80
2023-01-13T05:16:24.681Z,22.38
2023-01-13T05:18:52.884Z,23.48
2023-01-13T05:21:38.385Z,23.08
2023-01-13T05:24:24.590Z,21.20
2023-01-13T05:26:54.108Z,20.95
2023-01-13T05:29:22.350Z,22.83
2023-01-13T05:31:51.008Z,21.95
2023-01-13T05:34:19.156Z,24.17
2023-01-13T05:36:47.330Z,25.05
2023-01-13T05:39:15.644Z,26.05
2023-01-13T05:42:01.443Z,24.15
2023-01-13T05:44:31.008Z,26.25
2023-01-13T05:46:59.122Z,26.60
2023-01-13T05:49:27.379Z,26.35
2023-01-13T05:51:57.632Z,26.52
2023-01-13T05:54:25.814Z,27.17
2023-01-13T05:56:53.942Z,28.45
2023-01-13T05:59:22.134Z,26.48
2023-01-13T06:01:51.864Z,27.63
2023-01-13T06:04:20.106Z,27.92
2023-01-13T06:06:48.987Z,26.48
2023-01-13T06:09:17.316Z,26.95
2023-01-13T06:11:46.512Z,29.33
2023-01-13T06:14:14.861Z,26.73
2023-01-13T06:16:42.995Z,26.30
2023-01-13T06:19:14.058Z,23.58
2023-01-13T06:21:43.568Z,24.83
2023-01-13T06:24:12.273Z,25.00
2023-01-13T06:26:41.932Z,26.85
2023-01-13T06:29:14.116Z,26.42
2023-01-13T06:31:42.330Z,28.85
2023-01-13T06:34:15.839Z,31.63
2023-01-13T06:36:48.622Z,32.03
2023-01-13T06:39:21.349Z,31.70
2023-01-13T06:42:08.197Z,32.42
2023-01-13T06:44:36.409Z,30.38
2023-01-13T06:47:04.981Z,29.25
2023-01-13T06:49:34.536Z,28.63
2023-01-13T06:52:02.753Z,28.77
2023-01-13T06:54:30.918Z,30.65
2023-01-13T06:56:59.103Z,28.55
2023-01-13T06:59:27.326Z,25.42
2023-01-13T07:01:55.676Z,26.25
2023-01-13T07:04:24.089Z,24.92
2023-01-13T07:06:53.793Z,25.90
2023-01-13T07:09:21.920Z,23.13
2023-01-13T07:11:52.088Z,25.17
2023-01-13T07:14:37.979Z,23.52
2023-01-13T07:17:06.432Z,22.88
2023-01-13T07:19:34.624Z,23.15
2023-01-13T07:22:04.195Z,21.13
2023-01-13T07:24:32.428Z,21.27
2023-01-13T07:27:00.617Z,22.50
2023-01-13T07:29:28.808Z,20.98
2023-01-13T07:31:59.002Z,19.10
2023-01-13T07:34:27.102Z,19.27
2023-01-13T07:36:55.366Z,17.80
2023-01-13T07:39:24.861Z,18.13
2023-01-13T07:42:10.930Z,17.90
2023-01-13T07:44:40.940Z,18.00
2023-01-13T07:47:11.237Z,18.40
2023-01-13T07:49:39.367Z,16.95
2023-01-13T07:52:07.566Z,16.17
2023-01-13T07:54:40.932Z,18.38
2023-01-13T07:57:10.553Z,17.23
2023-01-13T07:59:38.807Z,17.85
2023-01-13T08:02:07.568Z,18.13
2023-01-13T08:04:35.792Z,18.40
2023-01-13T08:07:06.681Z,18.85
2023-01-13T08:09:36.255Z,18.60
2023-01-13T08:12:21.946Z,20.70
2023-01-13T08:14:51.809Z,20.00
2023-01-13T08:17:20.702Z,20.85
2023-01-13T08:19:49.151Z,18.88
2023-01-13T08:22:17.345Z,19.70
2023-01-13T08:24:50.918Z,19.20
2023-01-13T08:27:20.355Z,19.27
2023-01-13T08:29:48.587Z,18.00
2023-01-13T08:32:16.794Z,18.42
2023-01-13T08:34:45.006Z,16.42
2023-01-13T08:37:13.162Z,16.02
2023-01-13T08:39:45.317Z,17.35
2023-01-13T08:42:14.832Z,16.90
2023-01-13T08:44:43.007Z,17.58
2023-01-13T08:47:11.139Z,17.90
2023-01-13T08:49:39.274Z,19.95
2023-01-13T08:52:08.151Z,18.20
2023-01-13T08:54:36.377Z,19.60
2023-01-13T08:57:04.702Z,20.98
2023-01-13T08:59:34.857Z,19.00
2023-01-13T09:02:03.584Z,20.92
2023-01-13T09:04:32.298Z,20.38
2023-01-13T09:07:02.362Z,20.50
2023-01-13T09:09:30.561Z,19.63
2023-01-13T09:12:16.728Z,20.20
2023-01-13T09:14:46.358Z,19.23
2023-01-13T09:17:14.720Z,19.10
2023-01-13T09:19:42.953Z,19.67
2023-01-13T09:22:15.062Z,19.73
2023-01-13T09:24:43.298Z,19.33
2023-01-13T09:27:12.654Z,19.98
2023-01-13T09:29:40.819Z,20.13
2023-01-13T09:32:13.267Z,20.02
2023-01-13T09:34:59.329Z,17.85
2023-01-13T09:37:28.441Z,16.95
2023-01-13T09:39:56.777Z,17.77
2023-01-13T09:42:57.344Z,17.00
2023-01-13T09:45:29.780Z,17.75
2023-01-13T09:48:05.974Z,16.67
2023-01-13T09:50:49.023Z,13.35
2023-01-13T09:53:22.825Z,13.40
2023-01-13T09:55:51.340Z,15.55
2023-01-13T09:58:20.440Z,14.60
2023-01-13T10:01:02.109Z,15.13
2023-01-13T10:03:33.497Z,15.25
2023-01-13T10:06:06.970Z,14.65
2023-01-13T10:08:38.827Z,14.57
2023-01-13T10:11:27.730Z,15.10
2023-01-13T10:14:00.042Z,13.85
2023-01-13T10:16:42.212Z,14.48
2023-01-13T10:19:19.749Z,14.40
2023-01-13T10:22:09.271Z,15.98
2023-01-13T10:24:54.372Z,15.05
2023-01-13T10:27:30.592Z,14.50
2023-01-13T10:29:58.769Z,14.85
2023-01-13T10:32:26.919Z,14.77
2023-01-13T10:34:58.063Z,15.40
2023-01-13T10:37:28.817Z,15.68
2023-01-13T10:40:00.811Z,16.08
2023-01-13T10:42:29.300Z,15.15
2023-01-13T10:44:58.918Z,15.80
2023-01-13T10:47:29.731Z,16.75
2023-01-13T10:50:24.480Z,17.70
2023-01-13T10:53:01.753Z,16.38
2023-01-13T10:55:33.346Z,15.75
2023-01-13T10:58:14.167Z,17.23
2023-01-13T11:00:42.451Z,16.70
2023-01-13T11:03:16.704Z,15.23
2023-01-13T11:05:57.463Z,15.02
2023-01-13T11:08:27.818Z,16.65
2023-01-13T11:10:57.260Z,18.13
2023-01-13T11:13:31.882Z,16.42
2023-01-13T11:16:04.887Z,17.05
2023-01-13T11:18:43.682Z,17.83
2023-01-13T11:21:23.668Z,18.00
2023-01-13T11:24:07.160Z,17.13
2023-01-13T11:26:44.543Z,17.75
2023-01-13T11:29:19.190Z,17.40
2023-01-13T11:31:50.197Z,18.10
2023-01-13T11:34:29.177Z,18.40
2023-01-13T11:37:00.681Z,18.27
2023-01-13T11:39:35.172Z,16.95
2023-01-13T11:42:22.434Z,17.30
2023-01-13T11:44:57.884Z,18.50
2023-01-13T11:47:27.603Z,17.35
2023-01-13T11:49:56.084Z,17.35
2023-01-13T11:52:34.276Z,17.67
2023-01-13T11:55:22.618Z,19.67
2023-01-13T11:58:13.318Z,20.80
2023-01-13T12:01:10.873Z,20.23
2023-01-13T12:03:44.246Z,19.55
2023-01-13T12:06:23.052Z,19.80
2023-01-13T12:09:12.035Z,21.10
2023-01-13T12:12:07.515Z,19.02
2023-01-13T12:14:42.732Z,19.60
2023-01-13T12:17:21.842Z,19.98
2023-01-13T12:19:51.540Z,20.40
2023-01-13T12:22:25.169Z,21.88
2023-01-13T12:24:59.341Z,22.90
2023-01-13T12:27:36.357Z,21.08
2023-01-13T12:30:14.627Z,21.05
2023-01-13T12:32:43.538Z,21.17
2023-01-13T12:35:38.920Z,21.08
2023-01-13T12:38:12.167Z,20.92
2023-01-13T12:40:52.695Z,22.85
2023-01-13T12:43:40.467Z,22.13
2023-01-13T12:46:41.906Z,21.88
2023-01-13T12:49:27.468Z,21.10
2023-01-13T12:52:15.383Z,20.30
2023-01-13T12:55:10.317Z,20.70
2023-01-13T12:57:40.412Z,22.80
2023-01-13T13:00:18.442Z,21.80
2023-01-13T13:03:22.846Z,21.70
2023-01-13T13:05:58.091Z,21.42
2023-01-13T13:08:43.952Z,22.30
2023-01-13T13:11:53.909Z,21.52
2023-01-13T13:14:55.124Z,21.58
2023-01-13T13:17:45.105Z,22.33
2023-01-13T13:20:46.542Z,23.05
2023-01-13T13:23:49.073Z,23.95
2023-01-13T13:26:21.871Z,23.13
2023-01-13T13:29:00.553Z,24.30
2023-01-13T13:31:38.962Z,23.27
2023-01-13T13:34:23.206Z,24.98
2023-01-13T13:37:03.487Z,26.10
2023-01-13T13:39:51.227Z,23.90
2023-01-13T13:42:39.862Z,25.67
2023-01-13T13:45:34.157Z,25.90
2023-01-13T13:48:16.403Z,25.92
2023-01-13T13:50:50.643Z,24.67
2023-01-13T13:53:21.188Z,25.23
2023-01-13T13:55:59.743Z,26.40
2023-01-13T13:58:29.499Z,27.38
2023-01-13T14:00:58.785Z,25.15
2023-01-13T14:03:30.540Z,25.98
2023-01-13T14:06:08.163Z,25.85
2023-01-13T14:08:38.860Z,25.35
2023-01-13T14:11:26.475Z,27.02
2023-01-13T14:14:03.370Z,28.15
2023-01-13T14:16:32.892Z,26.20
2023-01-13T14:19:01.707Z,26.17
2023-01-13T14:21:31.866Z,26.70
2023-01-13T14:24:04.655Z,24.10
2023-01-13T14:26:33.701Z,28.92
2023-01-13T14:29:03.269Z,27.67
2023-01-13T14:31:32.937Z,26.10
2023-01-13T14:34:32.126Z,25.25
2023-01-13T14:36:54.521Z,26.85
2023-01-13T14:39:27.352Z,27.88
2023-01-13T14:41:55.520Z,28.40
2023-01-13T14:44:27.045Z,28.67
2023-01-13T14:46:57.383Z,26.65
2023-01-13T14:49:30.740Z,28.02
2023-01-13T14:52:12.459Z,27.42
2023-01-13T14:54:46.133Z,28.08
2023-01-13T14:57:16.452Z,26.35
2023-01-13T14:59:51.835Z,28.77
2023-01-13T15:02:44.770Z,27.55
2023-01-13T15:05:42.725Z,27.20
2023-01-13T15:08:31.759Z,27.80
2023-01-13T15:11:01.561Z,25.90
2023-01-13T15:13:37.284Z,26.63
2023-01-13T15:16:17.667Z,26.80
2023-01-13T15:18:46.167Z,27.05
2023-01-13T15:21:15.811Z,26.73
2023-01-13T15:23:47.311Z,25.70
2023-01-13T15:26:24.606Z,26.08
2023-01-13T15:28:53.924Z,26.63
2023-01-13T15:31:23.201Z,27.23
2023-01-13T15:33:51.841Z,27.00
2023-01-13T15:36:25.871Z,25.75
2023-01-13T15:38:55.678Z,24.77
2023-01-13T15:41:37.886Z,26.05
2023-01-13T15:44:23.746Z,22.45
2023-01-13T15:46:53.551Z,23.70
2023-01-13T15:49:27.849Z,24.33
2023-01-13T15:51:56.009Z,22.52
2023-01-13T15:54:25.674Z,22.55
2023-01-13T15:56:54.873Z,21.25
2023-01-13T15:59:31.427Z,19.63
2023-01-13T16:01:59.678Z,20.75
2023-01-13T16:04:28.339Z,21.75
2023-01-13T16:06:56.596Z,22.98
2023-01-13T16:09:26.374Z,22.45
2023-01-13T16:11:54.699Z,22.92
2023-01-13T16:14:23.154Z,21.02
2023-01-13T16:16:51.840Z,22.00
2023-01-13T16:19:20.121Z,21.13
2023-01-13T16:21:48.288Z,20.17
2023-01-13T16:24:16.824Z,21.55
2023-01-13T16:26:46.508Z,22.20
2023-01-13T16:29:14.745Z,22.63
2023-01-13T16:31:43.093Z,22.60
2023-01-13T16:34:13.676Z,21.10
2023-01-13T16:36:42.011Z,22.55
2023-01-13T16:39:21.787Z,22.30
2023-01-13T16:41:51.792Z,21.50
2023-01-13T16:44:20.299Z,21.75
2023-01-13T16:46:48.783Z,22.38
2023-01-13T16:49:18.579Z,22.25
2023-01-13T16:51:46.783Z,22.95
2023-01-13T16:54:15.241Z,22.20
2023-01-13T16:56:43.464Z,23.85
2023-01-13T16:59:14.821Z,22.33
2023-01-13T17:01:46.587Z,23.20
2023-01-13T17:04:17.758Z,22.25
2023-01-13T17:06:52.202Z,21.85
2023-01-13T17:09:22.999Z,20.63
2023-01-13T17:11:52.145Z,21.65
2023-01-13T17:14:23.737Z,22.40
2023-01-13T17:16:54.835Z,21.42
2023-01-13T17:19:24.260Z,23.02
2023-01-13T17:21:52.813Z,22.95
2023-01-13T17:24:21.718Z,24.90
2023-01-13T17:26:51.823Z,21.48
2023-01-13T17:29:23.659Z,21.58
2023-01-13T17:31:52.690Z,21.38
2023-01-13T17:34:22.287Z,22.58
2023-01-13T17:36:51.555Z,23.10
2023-01-13T17:39:22.282Z,23.52
2023-01-13T17:41:51.275Z,23.13
2023-01-13T17:44:24.591Z,22.15
2023-01-13T17:46:54.849Z,22.15
2023-01-13T17:49:23.373Z,21.85
2023-01-13T17:51:53.132Z,21.35
2023-01-13T17:54:22.772Z,21.85
2023-01-13T17:56:51.829Z,23.95
2023-01-13T17:59:22.903Z,23.83
2023-01-13T18:01:51.920Z,22.10
2023-01-13T18:04:22.225Z,22.83
2023-01-13T18:06:51.710Z,23.48
2023-01-13T18:09:20.385Z,21.77
2023-01-13T18:11:49.313Z,23.35
2023-01-13T18:14:19.307Z,21.65
2023-01-13T18:16:49.914Z,23.15
2023-01-13T18:19:36.390Z,21.95
2023-01-13T18:22:23.294Z,23.20
2023-01-13T18:25:10.451Z,24.20
2023-01-13T18:27:41.900Z,23.38
2023-01-13T18:30:13.932Z,23.67
2023-01-13T18:32:44.123Z,23.20
2023-01-13T18:35:13.127Z,24.42
2023-01-13T18:37:44.489Z,24.45
2023-01-13T18:40:15.326Z,23.60
2023-01-13T18:42:52.911Z,25.83
2023-01-13T18:45:24.767Z,24.30
2023-01-13T18:47:58.409Z,23.40
2023-01-13T18:50:28.257Z,23.77
2023-01-13T18:52:57.963Z,24.08
2023-01-13T18:55:29.629Z,24.50
2023-01-13T18:58:00.092Z,24.90
2023-01-13T19:00:29.835Z,23.60
2023-01-13T19:05:35.651Z,25.10
2023-01-13T19:08:07.701Z,24.63
2023-01-13T19:10:36.732Z,25.35
2023-01-13T19:13:06.416Z,24.15
2023-01-13T19:15:38.371Z,26.05
2023-01-13T19:18:09.529Z,24.95
2023-01-13T19:20:39.648Z,26.05
2023-01-13T19:23:09.790Z,26.15
2023-01-13T19:25:39.269Z,26.10
2023-01-13T19:28:08.456Z,25.90
2023-01-13T19:30:37.868Z,27.58
2023-01-13T19:33:07.004Z,26.33
2023-01-13T19:35:43.673Z,24.00
2023-01-13T19:38:12.435Z,25.15
2023-01-13T19:40:41.665Z,25.20
2023-01-13T19:43:25.802Z,25.40
2023-01-13T19:45:55.207Z,28.35
2023-01-13T19:48:29.532Z,27.13
2023-01-13T19:51:00.851Z,28.60
2023-01-13T19:53:30.287Z,28.58
2023-01-13T19:55:59.264Z,26.38
2023-01-13T19:58:30.465Z,28.52
2023-01-13T20:00:59.025Z,27.70
2023-01-13T20:03:31.153Z,26.77
2023-01-13T20:06:09.113Z,27.48
2023-01-13T20:12:29.486Z,25.65
2023-01-13T20:14:59.503Z,27.67
2023-01-13T20:17:30.203Z,27.42
2023-01-13T20:20:01.245Z,29.27
2023-01-13T20:22:31.946Z,28.70
2023-01-13T20:25:07.133Z,30.25
2023-01-13T20:27:36.765Z,28.92
2023-01-13T20:30:09.794Z,31.50
2023-01-13T20:32:39.639Z,32.50
2023-01-13T20:37:48.997Z,30.52
2023-01-13T20:40:18.585Z,32.47
2023-01-13T20:42:47.489Z,34.80
2023-01-13T20:45:21.141Z,32.75
2023-01-13T20:47:51.321Z,38.35
2023-01-13T20:50:22.944Z,36.45
2023-01-13T20:52:55.274Z,34.00
2023-01-13T20:55:24.385Z,33.97
2023-01-13T20:57:53.596Z,32.00
2023-01-13T21:00:23.137Z,30.80
2023-01-13T21:02:51.616Z,29.65
2023-01-13T21:05:20.514Z,31.25
2023-01-13T21:07:48.865Z,30.70
2023-01-13T21:10:19.245Z,29.10
2023-01-13T21:13:05.387Z,28.77
2023-01-13T21:15:33.665Z,30.80
2023-01-13T21:18:19.699Z,31.10
2023-01-13T21:20:48.199Z,32.30
2023-01-13T21:23:22.783Z,32.40
2023-01-13T21:25:52.631Z,30.50
2023-01-13T21:28:21.182Z,30.05
2023-01-13T21:30:50.215Z,29.70
2023-01-13T21:33:18.709Z,30.48
2023-01-13T21:35:46.924Z,30.90
2023-01-13T21:38:15.216Z,32.33
2023-01-13T21:40:43.490Z,31.63
2023-01-13T21:43:31.908Z,31.63
2023-01-13T21:46:31.969Z,42.45
2023-01-13T21:49:00.275Z,43.67
2023-01-13T21:51:29.054Z,44.85
2023-01-13T21:53:58.091Z,50.42
2023-01-13T21:56:26.983Z,38.17
2023-01-13T21:58:57.260Z,39.97
2023-01-13T22:01:25.608Z,38.00
2023-01-13T22:04:11.030Z,36.65
2023-01-13T22:06:39.499Z,34.72
2023-01-13T22:09:08.266Z,36.25
2023-01-13T22:11:36.446Z,35.00
2023-01-13T22:14:09.491Z,37.42
2023-01-13T22:16:41.754Z,39.97
2023-01-13T22:19:11.689Z,37.50
2023-01-13T22:21:40.097Z,35.55
2023-01-13T22:24:08.917Z,32.63
2023-01-13T22:26:37.249Z,34.17
2023-01-13T22:29:06.812Z,32.15
2023-01-13T22:31:35.371Z,30.35
2023-01-13T22:34:03.573Z,29.77
2023-01-13T22:36:31.826Z,28.88
2023-01-13T22:39:00.700Z,28.08
2023-01-13T22:41:29.098Z,28.02
2023-01-13T22:43:57.444Z,27.40
2023-01-13T22:46:27.068Z,27.80
2023-01-13T22:48:55.981Z,28.23
2023-01-13T22:51:25.223Z,27.25
2023-01-13T22:53:53.477Z,26.05
2023-01-13T22:56:23.650Z,28.77
2023-01-13T22:58:54.750Z,28.55
2023-01-13T23:01:24.445Z,27.63
2023-01-13T23:03:54.811Z,29.45
2023-01-13T23:06:24.362Z,28.13
2023-01-13T23:08:54.284Z,30.25
2023-01-13T23:11:24.750Z,30.08
2023-01-13T23:13:59.623Z,29.58
2023-01-13T23:16:30.038Z,30.23
2023-01-13T23:18:59.733Z,32.17
2023-01-13T23:21:31.026Z,32.03
2023-01-13T23:23:59.644Z,32.08
2023-01-13T23:26:28.303Z,30.85
2023-01-13T23:29:00.197Z,30.10
2023-01-13T23:31:28.533Z,32.72
2023-01-13T23:33:56.728Z,34.53
2023-01-13T23:36:28.246Z,34.30
2023-01-13T23:38:57.019Z,34.40
2023-01-13T23:41:26.820Z,32.22
2023-01-13T23:43:58.638Z,35.35
2023-01-13T23:46:27.714Z,35.15
2023-01-13T23:48:56.527Z,34.83
2023-01-13T23:51:27.690Z,32.40
2023-01-13T23:53:56.129Z,33.63
2023-01-13T23:56:27.426Z,32.60
2023-01-13T23:58:55.832Z,36.47
